• Join FlightAware (Why Join?)
  • Login
  • US Flag 
03:48PM EDT


 

Airport Tracker/Info


-or-


 

Live Flight TrackerFlight Track Log ✈ SWA2166 ✈ 20-Apr-2013 ✈ KATL - KDEN

Flight Track Log - Related Links

Times and Time Zones

All times are in EDT time to prevent confusion due to time zone crossing. See the SWA2166 flight status page for this flight to view local times or setup timezone preferences in your user account.

Time Position Orientation Groundspeed Altitude Reporting Facility
EDT Latitude Longitude Course Direction KTS MPH feet Rate Location/Type
06:50AM 33.6500 -84.4500 287° West 148 170 2,400  Level Atlanta TRACON
06:51AM 33.6667 -84.5167 287° West 202 232 4,800 2,700 Climbing Atlanta TRACON
06:52AM 33.6667 -84.6000 270° West 250 288 7,900 2,880 Climbing Atlanta TRACON
06:54AM 33.7000 -84.7903 282° West 298 343 14,400 3,000 Climbing Atlanta Center
06:55AM 33.7203 -84.9128 281° West 330 380 17,600 3,000 Climbing Atlanta Center
06:56AM 33.7381 -85.0331 280° West 357 411 20,400 2,880 Climbing Atlanta Center
06:57AM 33.7558 -85.1556 280° West 368 423 23,400 2,760 Climbing Atlanta Center
06:58AM 33.7775 -85.2808 282° West 376 433 26,000 2,400 Climbing Atlanta Center
06:59AM 33.7972 -85.4061 281° West 376 433 28,300 2,280 Climbing Atlanta Center
07:00AM 33.8208 -85.5292 283° West 376 433 30,600 2,400 Climbing Atlanta Center
07:01AM 33.8400 -85.6544 280° West 381 438 33,100 2,400 Climbing Atlanta Center
07:02AM 33.8781 -85.7703 292° West 376 433 35,400 1,680 Climbing Atlanta Center
07:03AM 33.9103 -85.8636 293° West 364 419 36,500 960 Climbing Atlanta Center
07:04AM 33.9439 -85.9819 289° West 359 413 37,400 900 Climbing Atlanta Center
07:05AM 33.9858 -86.1006 293° West 372 428 38,400 1,020 Climbing Atlanta Center
07:06AM 34.0169 -86.2242 287° West 377 434 39,500 780 Climbing Atlanta Center
07:07AM 34.0503 -86.3428 289° West 382 440 40,000 240 Climbing Atlanta Center
07:08AM 34.0856 -86.4642 289° West 382 440 40,000  Level Atlanta Center
07:09AM 34.1206 -86.5906 289° West 387 445 40,000  Level Atlanta Center
07:10AM 34.1536 -86.7097 289° West 387 445 40,000  Level Atlanta Center
07:10AM 34.1711 -86.7772 287° West 383 441 40,000  Level Memphis Center
07:11AM 34.2014 -86.8839 289° West 378 435 40,000  Level Memphis Center
07:12AM 34.2364 -87.0183 288° West 378 435 40,000  Level Memphis Center
07:13AM 34.2708 -87.1425 289° West 378 435 40,000  Level Memphis Center
07:14AM 34.3072 -87.2594 291° West 378 435 40,000  Level Memphis Center
07:15AM 34.3414 -87.3789 289° West 378 435 40,000  Level Memphis Center
07:16AM 34.3714 -87.5036 286° West 378 435 40,000  Level Memphis Center
07:17AM 34.3989 -87.6133 287° West 378 435 40,000  Level Memphis Center
07:18AM 34.4350 -87.7383 289° West 384 442 40,000  Level Memphis Center
07:19AM 34.4689 -87.8631 288° West 384 442 40,000  Level Memphis Center
07:20AM 34.5028 -87.9881 288° West 389 448 40,000  Level Memphis Center
07:21AM 34.5406 -88.1156 290° West 389 448 40,000  Level Memphis Center
07:22AM 34.5722 -88.2561 285° West 397 457 40,000  Level Memphis Center
07:23AM 34.6056 -88.3789 288° West 392 451 40,000  Level Memphis Center
07:24AM 34.6322 -88.4792 288° West 392 451 40,000  Level Memphis Center
07:25AM 34.6717 -88.6247 288° West 386 444 40,000  Level Memphis Center
07:26AM 34.7028 -88.7481 287° West 386 444 40,000  Level Memphis Center
07:27AM 34.7356 -88.8736 288° West 381 438 40,000  Level Memphis Center
07:28AM 34.7661 -88.9969 287° West 381 438 40,000  Level Memphis Center
07:29AM 34.7989 -89.1206 288° West 381 438 40,000  Level Memphis Center
07:30AM 34.8311 -89.2464 287° West 381 438 40,000  Level Memphis Center
07:31AM 34.8636 -89.3725 287° West 381 438 40,000  Level Memphis Center
07:32AM 34.8917 -89.4989 285° West 381 438 40,000  Level Memphis Center
07:33AM 34.9217 -89.6225 287° West 381 438 40,000  Level Memphis Center
07:34AM 34.9703 -89.7439 296° West 381 438 40,000  Level Memphis Center
07:35AM 35.0272 -89.8625 300° West 396 456 40,000  Level Memphis Center
07:36AM 35.0733 -89.9664 298° West 402 463 40,000  Level Memphis Center
07:37AM 35.1428 -90.1006 302° West 416 479 40,000  Level Memphis Center
07:38AM 35.1950 -90.2172 299° West 411 473 40,000  Level Memphis Center
07:39AM 35.2431 -90.3214 299° West 399 459 40,000  Level Memphis Center
07:40AM 35.2972 -90.4386 300° West 394 453 40,000  Level Memphis Center
07:41AM 35.3494 -90.5531 299° West 394 453 40,000  Level Memphis Center
07:42AM 35.4011 -90.6678 299° West 394 453 40,000  Level Memphis Center
07:43AM 35.4550 -90.7828 300° West 394 453 40,000  Level Memphis Center
07:44AM 35.5047 -90.8978 298° West 394 453 40,000  Level Memphis Center
07:45AM 35.5606 -91.0231 299° West 389 448 40,000  Level Memphis Center
07:46AM 35.6142 -91.1386 300° West 389 448 40,000  Level Memphis Center
07:47AM 35.6675 -91.2564 299° West 399 459 40,000  Level Memphis Center
07:48AM 35.7106 -91.3619 297° West 389 448 40,000  Level Memphis Center
07:49AM 35.7658 -91.4803 300° West 397 457 40,000  Level Memphis Center
07:50AM 35.8189 -91.5986 299° West 397 457 40,000  Level Memphis Center
07:51AM 35.8739 -91.7225 299° West 397 457 40,000  Level Memphis Center
07:52AM 35.9267 -91.8386 299° West 397 457 40,000  Level Memphis Center
07:53AM 35.9753 -91.9600 296° West 392 451 40,000  Level Memphis Center
07:54AM 36.0319 -92.0922 298° West 392 451 40,000  Level Memphis Center
07:55AM 36.0825 -92.1958 301° West 392 451 40,000  Level Memphis Center
07:56AM 36.1328 -92.3178 297° West 397 457 40,000  Level Memphis Center
07:57AM 36.1872 -92.4347 300° West 397 457 40,000  Level Memphis Center
07:58AM 36.2353 -92.5544 296° West 397 457 40,000  Level Memphis Center
07:59AM 36.2872 -92.6742 298° West 397 457 40,000  Level Memphis Center
08:00AM 36.3392 -92.7917 299° West 397 457 40,000  Level Memphis Center
08:01AM 36.3908 -92.9169 297° West 402 463 40,000  Level Memphis Center
08:02AM 36.4428 -93.0319 299° West 396 456 40,000  Level Memphis Center
08:04AM 36.5289 -93.2378 298° West 389 448 40,000  Level Kansas City Center
08:05AM 36.5781 -93.3550 298° West 388 447 40,000  Level Kansas City Center
08:06AM 36.6278 -93.4717 298° West 384 442 40,000  Level Kansas City Center
08:07AM 36.6769 -93.5894 298° West 384 442 40,000  Level Kansas City Center
08:08AM 36.7261 -93.7075 297° West 385 443 40,000  Level Kansas City Center
08:09AM 36.7722 -93.8197 297° West 387 445 40,000  Level Kansas City Center
08:10AM 36.8225 -93.9397 298° West 390 449 40,000  Level Kansas City Center
08:11AM 36.8717 -94.0600 297° West 391 450 40,000  Level Kansas City Center
08:12AM 36.9322 -94.2058 297° West 393 452 40,000  Level Kansas City Center
08:13AM 36.9828 -94.3278 297° West 395 455 40,000  Level Kansas City Center
08:14AM 37.0300 -94.4489 296° West 392 451 40,000  Level Kansas City Center
08:15AM 37.0797 -94.5714 297° West 393 452 40,000  Level Kansas City Center
08:16AM 37.1297 -94.6925 297° West 393 452 40,000  Level Kansas City Center
08:17AM 37.1792 -94.8153 297° West 394 453 40,000  Level Kansas City Center
08:18AM 37.2281 -94.9383 297° West 395 455 40,000  Level Kansas City Center
08:19AM 37.2767 -95.0611 296° West 394 453 40,000  Level Kansas City Center
08:20AM 37.3256 -95.1836 297° West 393 452 40,000  Level Kansas City Center
08:21AM 37.3742 -95.3067 296° West 393 452 40,000  Level Kansas City Center
08:22AM 37.4225 -95.4283 297° West 392 451 40,000  Level Kansas City Center
08:23AM 37.4719 -95.5517 297° West 393 452 40,000  Level Kansas City Center
08:24AM 37.5208 -95.6761 296° West 396 456 40,000  Level Kansas City Center
08:25AM 37.5694 -95.8014 296° West 397 457 40,000  Level Kansas City Center
08:26AM 37.6275 -95.9533 296° West 399 459 40,000  Level Kansas City Center
08:27AM 37.6767 -96.0792 296° West 401 461 40,000  Level Kansas City Center
08:28AM 37.7253 -96.2033 296° West 399 459 40,000  Level Kansas City Center
08:29AM 37.7722 -96.3275 296° West 394 453 40,000  Level Kansas City Center
08:30AM 37.8194 -96.4525 296° West 394 453 40,000  Level Kansas City Center
08:31AM 37.8669 -96.5758 296° West 392 451 40,000  Level Kansas City Center
08:32AM 37.9139 -96.7003 296° West 392 451 40,000  Level Kansas City Center
08:33AM 37.9606 -96.8247 295° West 392 451 40,000  Level Kansas City Center
08:34AM 38.0072 -96.9492 295° West 392 451 40,000  Level Kansas City Center
08:36AM 38.0556 -97.0742 296° West 395 455 40,000  Level Kansas City Center
08:37AM 38.1022 -97.2019 295° West 399 459 40,000  Level Kansas City Center
08:38AM 38.1497 -97.3283 296° West 399 459 40,000  Level Kansas City Center
08:39AM 38.1961 -97.4553 295° West 399 459 40,000  Level Kansas City Center
08:40AM 38.2425 -97.5814 295° West 397 457 40,000  Level Kansas City Center
08:41AM 38.2978 -97.7317 295° West 396 456 40,000  Level Kansas City Center
08:42AM 38.3439 -97.8567 295° West 393 452 40,000  Level Kansas City Center
08:43AM 38.3889 -97.9814 295° West 392 451 40,000  Level Kansas City Center
08:44AM 38.4339 -98.1072 295° West 392 451 40,000  Level Kansas City Center
08:45AM 38.4792 -98.2336 295° West 393 452 40,000  Level Kansas City Center
08:46AM 38.5261 -98.3617 295° West 397 457 40,000  Level Kansas City Center
08:47AM 38.5725 -98.4894 295° West 398 458 40,000  Level Kansas City Center
08:48AM 38.6175 -98.6194 294° West 401 461 40,000  Level Kansas City Center
08:49AM 38.6639 -98.7486 295° West 402 463 40,000  Level Kansas City Center
08:50AM 38.7097 -98.8789 294° West 402 463 40,000  Level Kansas City Center
08:51AM 38.7550 -99.0092 294° West 401 461 40,000  Level Kansas City Center
08:52AM 38.8108 -99.1653 295° West 403 464 40,000  Level Kansas City Center
08:53AM 38.8483 -99.2994 290° West 402 463 40,000  Level Kansas City Center
08:54AM 38.8489 -99.4431 270° West 401 461 40,000  Level Kansas City Center
08:54AM 38.8497 -99.4903 271° West 404 465 40,000  Level Denver Center
08:55AM 38.8517 -99.6483 271° West 401 461 40,000  Level Denver Center
08:56AM 38.8531 -99.7856 271° West 401 461 40,000  Level Denver Center
08:57AM 38.8533 -99.9217 270° West 400 460 40,000  Level Denver Center
08:58AM 38.8542 -100.0814 270° West 401 461 40,000  Level Denver Center
08:59AM 38.8550 -100.2156 270° West 397 457 40,000  Level Denver Center
09:00AM 38.8547 -100.3514 270° West 398 458 40,000  Level Denver Center
09:01AM 38.8556 -100.5081 270° West 398 458 40,000  Level Denver Center
09:02AM 38.8547 -100.6203 269° West 396 456 40,000  Level Denver Center
09:03AM 38.8553 -100.7797 270° West 400 460 40,000  Level Denver Center
09:04AM 38.8550 -100.9394 270° West 403 464 40,000  Level Denver Center
09:05AM 38.8544 -101.0750 270° West 400 460 40,000  Level Denver Center
09:06AM 38.8525 -101.2375 269° West 405 466 40,000  Level Denver Center
09:07AM 38.8519 -101.3747 270° West 404 465 40,000  Level Denver Center
09:08AM 38.8514 -101.5111 270° West 401 461 40,000  Level Denver Center
09:09AM 38.8497 -101.6692 269° West 400 460 40,000  Level Denver Center
09:10AM 38.8486 -101.8050 269° West 401 461 40,000  Level Denver Center
09:11AM 38.8475 -101.9394 269° West 398 458 40,000  Level Denver Center
09:12AM 38.8453 -102.0986 269° West 398 458 40,000  Level Denver Center
09:13AM 38.8431 -102.2369 269° West 402 463 40,000  Level Denver Center
09:14AM 38.8408 -102.3753 269° West 405 466 40,000  Level Denver Center
09:15AM 38.8378 -102.5378 269° West 408 470 40,000  Level Denver Center
09:16AM 38.8350 -102.6769 269° West 409 471 40,000 -420 Level Denver Center
09:17AM 38.8667 -102.8169 286° West 406 467 39,200 -1,740 Descending Denver Center
09:18AM 38.9269 -102.9422 302° West 408 470 36,500 -2,580 Descending Denver Center
09:19AM 38.9872 -103.0658 302° West 405 466 34,000 -1,260 Descending Denver Center
09:20AM 39.0472 -103.1925 301° West 410 472 34,000 -360 Level Denver Center
09:21AM 39.1067 -103.3203 301° West 413 475 33,300 -1,800 Descending Denver Center
09:22AM 39.1672 -103.4478 302° West 414 476 30,400 -2,640 Descending Denver Center
09:23AM 39.2269 -103.5717 302° West 405 466 28,000 -2,400 Descending Denver Center
09:24AM 39.2847 -103.6950 301° West 399 459 25,600 -2,340 Descending Denver Center
09:25AM 39.3397 -103.8139 301° West 386 444 23,300 -1,800 Descending Denver Center
09:27AM 39.3900 -103.9253 300° West 363 418 22,000 -1,260 Descending Denver Center
09:28AM 39.4319 -103.9994 306° West 329 379 20,800 -1,680 Descending Denver Center
09:29AM 39.4986 -104.1075 309° West 315 362 18,700 -1,860 Descending Denver Center
09:30AM 39.5478 -104.1936 307° West 301 346 17,100 -840 Descending Denver Center
09:31AM 39.5989 -104.2756 309° West 296 341 17,000 -420 Descending Denver Center
09:32AM 39.6514 -104.3647 307° West 290 334 16,300 -1,140 Descending Denver Center
09:33AM 39.7006 -104.4453 308° West 284 327 14,800 -1,500 Descending Denver Center
09:34AM 39.7508 -104.5181 312° West 278 320 13,300 -1,500 Descending Denver Center
09:35AM 39.8314 -104.5225 358° North 290 334 11,800 -1,140 Descending Denver Center
09:36AM 39.9069 -104.5217 360° North 269 310 11,100 -600 Descending Denver Center
09:37AM 39.9772 -104.5200 North 239 275 10,600 -720 Descending Denver Center
09:37AM 40.0000 -104.5167 North 226 260 10,100 -900 Descending Denver TRACON
09:39AM 40.0892 -104.5442 347° North 213 245 8,800 -1,140 Descending Denver Center
09:39AM 40.0833 -104.5833 259° West 221 254 7,900 -900 Descending Denver TRACON
09:41AM 40.0203 -104.6603 223° Southwest 220 253 7,000 -480 Descending Denver Center
09:42AM 39.9722 -104.6858 202° Southwest 178 205 6,700 -480 Descending Denver Center
09:43AM 39.9281 -104.6864 181° South 160 184 6,100 -720 Descending Denver Center
09:44AM 39.8908 -104.6872 181° South 147 169 5,300 -840 Descending Denver Center
09:46AM 39.8617 -104.6732 North  Level Estimated
09:53AM 39.8617 -104.6732 North  Level Estimated
09:54AM 39.8617 -104.6732 North  Level Estimated